Time;durP1;ratioP1;P1;durP2;ratioP2;P2;SDS_P1;SDS_P2;PMS_P1;PMS_P2;Temp;Humidity;BMP_temperature;BMP_pressure;BME280_temperature;BME280_humidity;BME280_pressure;Samples;Min_cycle;Max_cycle;Signal;HPM_P1;HPM_P2
2021/09/01 00:04:55;;;;;;;20.63;7.78;;;15.00;99.90;;;;;;5921741;24;20660;-85
2021/09/01 01:15:23;;;;;;;14.60;7.05;;;14.60;99.90;;;;;;5836880;24;20189;-85
2021/09/01 01:22:17;;;;;;;14.05;7.25;;;14.70;99.90;;;;;;5948351;24;20173;-87
2021/09/01 01:25:39;;;;;;;13.57;7.07;;;14.60;99.90;;;;;;5972594;24;20253;-85
2021/09/01 01:28:23;;;;;;;21.23;7.90;;;14.70;99.90;;;;;;5863421;24;20944;-86
2021/09/01 01:30:58;;;;;;;16.23;8.35;;;14.60;99.90;;;;;;5918070;24;20179;-85
2021/09/01 01:57:52;;;;;;;17.55;8.77;;;14.20;99.90;;;;;;5926643;24;20227;-86
2021/09/01 02:10:32;;;;;;;18.90;9.23;;;14.30;99.90;;;;;;5927208;24;20150;-87
2021/09/01 02:43:52;;;;;;;21.60;8.68;;;14.10;99.90;;;;;;5877542;24;20183;-86
2021/09/01 02:50:06;;;;;;;21.00;8.93;;;14.10;99.90;;;;;;5866853;24;20304;-85
2021/09/01 03:26:03;;;;;;;17.10;10.02;;;13.80;99.90;;;;;;5766177;24;20296;-84
2021/09/01 03:28:32;;;;;;;26.13;8.80;;;13.80;99.90;;;;;;5852739;24;20674;-85
2021/09/01 03:31:11;;;;;;;18.58;10.57;;;13.80;99.90;;;;;;5991760;23;20206;-84
2021/09/01 03:33:58;;;;;;;19.60;8.68;;;13.80;99.90;;;;;;6091402;23;20180;-85
2021/09/01 03:36:27;;;;;;;16.35;9.45;;;13.90;99.90;;;;;;6106307;23;20197;-84
2021/09/01 03:38:55;;;;;;;16.02;8.93;;;13.70;99.90;;;;;;6105185;23;20605;-84
2021/09/01 03:41:32;;;;;;;16.05;9.20;;;13.80;99.90;;;;;;6109473;23;20593;-84
2021/09/01 03:43:59;;;;;;;19.90;9.15;;;13.60;99.90;;;;;;6107105;23;20609;-85
2021/09/01 03:46:30;;;;;;;16.27;9.80;;;13.60;99.90;;;;;;6105959;23;20230;-86
2021/09/01 03:49:01;;;;;;;26.10;10.23;;;13.70;99.90;;;;;;6108777;23;20228;-84
2021/09/01 03:51:30;;;;;;;20.40;9.63;;;13.80;99.90;;;;;;6114703;23;20178;-86
2021/09/01 03:53:59;;;;;;;15.40;9.90;;;13.70;99.90;;;;;;6112826;23;20241;-85
2021/09/01 03:56:28;;;;;;;17.33;9.32;;;13.80;99.90;;;;;;6111685;23;20207;-86
2021/09/01 03:58:55;;;;;;;13.93;8.35;;;13.80;99.90;;;;;;6108189;23;20184;-84
2021/09/01 04:01:32;;;;;;;;;;;;;;;;;;;;;
2021/09/01 04:04:01;;;;;;;24.08;11.40;;;13.90;99.90;;;;;;6103988;23;20201;-84
2021/09/01 04:06:29;;;;;;;23.77;11.10;;;13.90;99.90;;;;;;6101838;23;20604;-84
2021/09/01 04:08:56;;;;;;;16.98;9.52;;;13.90;99.90;;;;;;6103361;23;20178;-84
2021/09/01 04:11:23;;;;;;;25.40;10.50;;;14.00;99.90;;;;;;6104855;23;20699;-84
2021/09/01 04:13:55;;;;;;;21.10;9.52;;;14.00;99.90;;;;;;6106431;23;20181;-84
2021/09/01 04:16:23;;;;;;;23.17;8.70;;;14.10;99.90;;;;;;6108721;23;20226;-84
2021/09/01 04:19:02;;;;;;;15.45;9.25;;;14.10;99.90;;;;;;6116350;23;20202;-84
2021/09/01 04:21:30;;;;;;;15.30;8.63;;;14.20;99.90;;;;;;6115458;23;20181;-85
2021/09/01 04:23:58;;;;;;;15.40;8.60;;;14.20;99.90;;;;;;6115380;23;20202;-85
2021/09/01 04:26:26;;;;;;;18.88;8.10;;;14.30;99.90;;;;;;6115934;23;20205;-85
2021/09/01 04:28:55;;;;;;;13.38;10.13;;;14.30;99.90;;;;;;6116818;23;20237;-84
2021/09/01 04:31:23;;;;;;;18.92;10.43;;;14.30;99.90;;;;;;6135282;23;20261;-85
2021/09/01 04:33:50;;;;;;;18.02;9.82;;;14.40;99.90;;;;;;6133016;23;20181;-84
2021/09/01 04:39:44;;;;;;;20.98;9.90;;;14.40;99.90;;;;;;6132001;23;20176;-83
2021/09/01 04:51:21;;;;;;;13.63;9.48;;;14.40;99.90;;;;;;6183690;23;20236;-89
2021/09/01 04:53:48;;;;;;;37.35;10.25;;;14.40;99.90;;;;;;6184166;23;20161;-88
2021/09/01 04:56:16;;;;;;;19.35;9.88;;;14.40;99.90;;;;;;6181093;23;20249;-88
2021/09/01 04:58:45;;;;;;;14.77;9.50;;;14.50;99.90;;;;;;6154467;23;20165;-87
2021/09/01 05:01:17;;;;;;;23.85;11.15;;;14.50;99.90;;;;;;6154076;23;20429;-86
2021/09/01 05:07:04;;;;;;;12.05;8.43;;;14.60;99.90;;;;;;6154667;23;20236;-89
2021/09/01 05:09:31;;;;;;;23.25;11.68;;;14.60;99.90;;;;;;6154886;23;20222;-89
2021/09/01 05:12:13;;;;;;;14.18;8.13;;;14.70;99.90;;;;;;6154626;23;20185;-89
2021/09/01 05:14:41;;;;;;;17.05;9.02;;;14.70;99.90;;;;;;6153753;23;20261;-85
2021/09/01 05:17:22;;;;;;;21.55;9.55;;;14.80;99.90;;;;;;6151186;23;20200;-88
2021/09/01 05:23:12;;;;;;;19.50;9.63;;;15.10;99.90;;;;;;6150505;23;20539;-84
2021/09/01 05:25:56;;;;;;;17.52;9.98;;;15.20;99.90;;;;;;6148471;23;20201;-84
2021/09/01 05:31:41;;;;;;;16.05;9.40;;;15.30;99.90;;;;;;6150497;23;20180;-85
2021/09/01 05:37:58;;;;;;;16.65;10.25;;;15.60;99.90;;;;;;6142521;23;20197;-83
2021/09/01 05:40:26;;;;;;;17.50;8.07;;;15.70;99.90;;;;;;6145846;23;20170;-84
2021/09/01 05:42:53;;;;;;;15.13;8.00;;;15.80;99.90;;;;;;6146768;23;20238;-84
2021/09/01 05:45:21;;;;;;;18.42;9.30;;;16.00;99.90;;;;;;6144338;23;20202;-83
2021/09/01 05:47:50;;;;;;;17.48;8.15;;;16.20;99.90;;;;;;6143948;23;20235;-85
2021/09/01 05:50:19;;;;;;;13.18;7.35;;;16.50;99.90;;;;;;6142049;23;20182;-85
2021/09/01 05:52:48;;;;;;;13.65;8.98;;;17.00;99.90;;;;;;6138068;23;20291;-84
2021/09/01 05:55:29;;;;;;;11.00;7.40;;;17.70;99.90;;;;;;6135386;23;20207;-85
2021/09/01 05:58:01;;;;;;;12.67;7.47;;;18.10;99.90;;;;;;6133963;23;20772;-86
2021/09/01 06:00:32;;;;;;;20.07;7.60;;;19.10;99.90;;;;;;6134690;23;20394;-85
2021/09/01 06:03:04;;;;;;;12.07;6.43;;;19.90;99.90;;;;;;6136915;23;20390;-82
2021/09/01 06:05:31;;;;;;;22.90;11.70;;;20.90;99.90;;;;;;6140186;23;20503;-84
2021/09/01 06:08:24;;;;;;;18.23;6.97;;;21.60;99.90;;;;;;6137523;23;21027;-83
2021/09/01 06:10:57;;;;;;;16.57;6.70;;;22.40;99.90;;;;;;6136756;23;20417;-84
2021/09/01 06:13:24;;;;;;;11.83;7.03;;;22.80;99.90;;;;;;6136520;23;20410;-85
2021/09/01 06:15:52;;;;;;;19.00;9.53;;;22.60;99.90;;;;;;6136140;23;20427;-84
2021/09/01 06:21:04;;;;;;;13.43;8.13;;;22.20;99.90;;;;;;6149470;23;20408;-86
2021/09/01 06:23:34;;;;;;;21.20;11.00;;;21.80;99.90;;;;;;6150356;23;20401;-85
2021/09/01 06:28:50;;;;;;;20.47;8.07;;;20.50;99.90;;;;;;6135200;23;20417;-83
2021/09/01 06:31:22;;;;;;;26.37;12.30;;;20.00;99.90;;;;;;6135109;23;20393;-83
2021/09/01 06:34:23;;;;;;;17.13;8.57;;;19.60;99.90;;;;;;6135716;23;20429;-84
2021/09/01 06:36:50;;;;;;;17.40;10.10;;;19.20;99.90;;;;;;6152841;23;20491;-87
2021/09/01 06:39:34;;;;;;;14.43;7.53;;;18.90;99.90;;;;;;6152272;23;20413;-87
2021/09/01 06:42:01;;;;;;;22.27;7.70;;;18.60;99.90;;;;;;6147812;23;20416;-84
2021/09/01 06:44:28;;;;;;;22.97;8.17;;;18.30;99.90;;;;;;6133233;23;20416;-84
2021/09/01 06:46:55;;;;;;;18.38;9.23;;;18.10;99.90;;;;;;6133261;23;20448;-86
2021/09/01 06:49:23;;;;;;;15.90;8.30;;;18.10;99.90;;;;;;6133384;23;20208;-84
2021/09/01 06:51:50;;;;;;;15.67;7.10;;;18.00;99.90;;;;;;6133757;23;20538;-85
2021/09/01 06:54:17;;;;;;;17.15;6.90;;;18.10;99.90;;;;;;6135107;23;20399;-86
2021/09/01 06:56:45;;;;;;;14.85;8.52;;;18.00;99.90;;;;;;6132954;23;20200;-84
2021/09/01 06:59:13;;;;;;;15.97;8.30;;;18.20;99.90;;;;;;6135277;23;20195;-83
2021/09/01 07:01:40;;;;;;;21.17;9.97;;;18.30;99.90;;;;;;6134611;23;20502;-84
2021/09/01 07:04:07;;;;;;;9.87;6.40;;;18.40;99.90;;;;;;6133933;23;20435;-84
2021/09/01 07:06:34;;;;;;;14.07;7.30;;;18.50;99.90;;;;;;6133918;23;20459;-84
2021/09/01 07:09:02;;;;;;;12.70;5.97;;;18.60;99.90;;;;;;6135345;23;20400;-84
2021/09/01 07:11:29;;;;;;;19.30;7.20;;;18.60;99.90;;;;;;6135554;23;20412;-84
2021/09/01 07:13:57;;;;;;;14.77;8.63;;;18.70;99.90;;;;;;6135216;23;21090;-83
2021/09/01 07:16:25;;;;;;;10.73;5.60;;;18.80;99.90;;;;;;6136029;23;20795;-84
2021/09/01 07:18:53;;;;;;;9.03;6.53;;;18.80;99.90;;;;;;6138987;23;20405;-84
2021/09/01 07:21:20;;;;;;;16.00;7.83;;;19.00;99.90;;;;;;6138277;23;20418;-88
2021/09/01 07:23:47;;;;;;;17.83;8.80;;;19.20;99.90;;;;;;6137036;23;20409;-86
2021/09/01 07:26:14;;;;;;;13.17;6.30;;;19.40;99.90;;;;;;6135080;23;20894;-83
2021/09/01 07:28:42;;;;;;;14.63;7.33;;;19.50;99.90;;;;;;6136086;23;20397;-83
2021/09/01 07:31:11;;;;;;;14.20;7.20;;;19.40;99.90;;;;;;6135007;23;20417;-84
2021/09/01 07:33:38;;;;;;;16.40;9.43;;;19.30;99.90;;;;;;6135909;23;20416;-84
2021/09/01 07:36:05;;;;;;;20.23;6.50;;;19.20;99.90;;;;;;6135494;23;20417;-85
2021/09/01 07:38:33;;;;;;;15.83;7.07;;;19.30;99.90;;;;;;6135594;23;20444;-86
2021/09/01 07:41:00;;;;;;;13.13;7.10;;;19.20;99.90;;;;;;6135892;23;20401;-85
2021/09/01 07:43:28;;;;;;;13.63;7.80;;;19.20;99.90;;;;;;6136642;23;20405;-84
2021/09/01 07:45:55;;;;;;;11.97;6.90;;;19.20;99.90;;;;;;6136518;23;20520;-85
2021/09/01 07:48:24;;;;;;;15.03;8.00;;;19.10;99.90;;;;;;6136780;23;20426;-84
2021/09/01 07:50:52;;;;;;;12.93;8.10;;;19.20;99.90;;;;;;6138944;23;20477;-85
2021/09/01 07:53:24;;;;;;;15.53;8.30;;;19.20;99.90;;;;;;6141708;23;20417;-88
2021/09/01 07:55:58;;;;;;;13.20;7.27;;;19.10;99.90;;;;;;6142470;23;20429;-83
2021/09/01 07:58:25;;;;;;;19.57;7.87;;;19.20;99.90;;;;;;6140887;23;20444;-85
2021/09/01 08:00:52;;;;;;;13.47;7.30;;;19.20;99.90;;;;;;6143150;23;20457;-86
2021/09/01 08:03:19;;;;;;;13.83;7.27;;;19.20;99.90;;;;;;6143046;23;20421;-87
2021/09/01 08:05:48;;;;;;;10.93;6.87;;;19.20;99.90;;;;;;6142820;23;20466;-84
2021/09/01 08:08:15;;;;;;;17.47;8.37;;;19.30;99.90;;;;;;6142572;23;20445;-84
2021/09/01 08:10:42;;;;;;;17.90;9.20;;;19.50;99.90;;;;;;6142920;23;20420;-84
2021/09/01 08:13:09;;;;;;;12.47;8.80;;;19.60;99.90;;;;;;6143474;23;20504;-83
2021/09/01 08:15:46;;;;;;;19.70;9.13;;;19.80;99.90;;;;;;6143576;23;20413;-84
2021/09/01 08:18:13;;;;;;;18.87;9.90;;;19.80;99.90;;;;;;6145164;23;20413;-83
2021/09/01 08:20:54;;;;;;;16.00;11.03;;;19.80;99.90;;;;;;6145297;23;20432;-85
2021/09/01 08:23:31;;;;;;;16.20;11.47;;;19.80;99.90;;;;;;6143985;23;20916;-85
2021/09/01 08:26:11;;;;;;;18.20;13.67;;;19.90;99.90;;;;;;6144871;23;20422;-85
2021/09/01 08:28:43;;;;;;;17.00;10.10;;;20.00;99.90;;;;;;6143339;23;20428;-86
2021/09/01 08:31:10;;;;;;;15.87;11.43;;;20.20;99.90;;;;;;6142457;23;20398;-86
2021/09/01 08:33:37;;;;;;;17.47;10.77;;;20.20;99.90;;;;;;6142416;23;20430;-86
2021/09/01 08:36:06;;;;;;;18.00;11.90;;;20.30;99.90;;;;;;6146569;23;20544;-86
2021/09/01 08:38:33;;;;;;;14.53;11.73;;;20.40;99.90;;;;;;6148529;23;20400;-85
2021/09/01 08:41:01;;;;;;;13.30;10.50;;;20.50;99.90;;;;;;6148712;23;20409;-84
2021/09/01 08:43:29;;;;;;;12.63;8.37;;;20.50;99.90;;;;;;6149228;23;20409;-85
2021/09/01 08:46:00;;;;;;;11.83;9.87;;;20.60;99.90;;;;;;6148212;23;20416;-85
2021/09/01 08:48:29;;;;;;;17.47;10.60;;;20.70;99.90;;;;;;6149921;23;20453;-87
2021/09/01 08:50:57;;;;;;;14.30;9.67;;;20.80;99.90;;;;;;6144716;23;20413;-87
2021/09/01 08:53:25;;;;;;;16.40;10.13;;;20.70;99.90;;;;;;6141878;23;20465;-85
2021/09/01 08:55:52;;;;;;;13.10;9.60;;;20.80;99.90;;;;;;6141733;23;20406;-87
2021/09/01 08:58:20;;;;;;;15.43;12.43;;;20.90;99.90;;;;;;6145482;23;20440;-87
2021/09/01 09:00:47;;;;;;;11.90;10.20;;;21.00;99.90;;;;;;6144341;23;20470;-85
2021/09/01 09:03:14;;;;;;;14.27;8.43;;;20.90;99.90;;;;;;6150539;23;20406;-83
2021/09/01 09:05:45;;;;;;;9.97;7.77;;;21.00;99.90;;;;;;6152218;23;20416;-87
2021/09/01 09:08:14;;;;;;;12.07;8.50;;;21.00;99.90;;;;;;6150478;23;20529;-85
2021/09/01 09:10:44;;;;;;;17.23;10.27;;;20.90;99.90;;;;;;6147992;23;20756;-86
2021/09/01 09:13:13;;;;;;;14.13;9.90;;;20.80;99.90;;;;;;6140104;23;20374;-85
2021/09/01 09:15:42;;;;;;;12.90;9.17;;;20.70;99.90;;;;;;6137855;23;20409;-85
2021/09/01 09:18:27;;;;;;;12.00;8.93;;;20.80;99.90;;;;;;6137495;23;20437;-85
2021/09/01 09:21:13;;;;;;;16.37;9.03;;;20.80;99.90;;;;;;6137529;23;20409;-85
2021/09/01 09:23:40;;;;;;;10.33;7.83;;;20.90;99.90;;;;;;6139613;23;20866;-85
2021/09/01 09:26:23;;;;;;;19.90;10.40;;;21.10;99.90;;;;;;6138832;23;20417;-85
2021/09/01 09:29:08;;;;;;;12.30;8.07;;;21.50;99.90;;;;;;6138542;23;20436;-85
2021/09/01 09:31:35;;;;;;;15.20;8.10;;;21.90;99.90;;;;;;6139679;23;20421;-85
2021/09/01 09:34:07;;;;;;;14.00;9.93;;;22.20;99.90;;;;;;6139074;23;20423;-85
2021/09/01 09:36:35;;;;;;;12.40;9.57;;;22.70;99.90;;;;;;6138956;23;20433;-87
2021/09/01 09:39:03;;;;;;;10.03;8.30;;;23.20;99.90;;;;;;6139821;23;20409;-85
2021/09/01 09:41:32;;;;;;;12.33;8.37;;;23.70;98.80;;;;;;6137866;23;20461;-86
2021/09/01 09:44:01;;;;;;;11.57;7.60;;;24.00;97.90;;;;;;6138089;23;20474;-85
2021/09/01 09:46:29;;;;;;;14.33;7.90;;;24.40;97.20;;;;;;6138160;23;20473;-86
2021/09/01 09:49:06;;;;;;;14.60;9.67;;;24.50;96.80;;;;;;6137466;23;20417;-86
2021/09/01 09:51:38;;;;;;;10.00;6.70;;;24.60;97.10;;;;;;6139458;23;20411;-85
2021/09/01 09:54:15;;;;;;;12.87;8.80;;;24.40;97.00;;;;;;6152052;23;20436;-87
2021/09/01 09:56:44;;;;;;;13.23;8.53;;;24.00;97.50;;;;;;6152537;23;20469;-88
2021/09/01 09:59:16;;;;;;;10.63;6.80;;;24.00;97.40;;;;;;6153025;23;20439;-85
2021/09/01 10:01:45;;;;;;;16.50;6.97;;;24.30;96.20;;;;;;6152147;23;20385;-86
2021/09/01 10:04:12;;;;;;;12.47;6.57;;;24.70;95.80;;;;;;6152741;23;20394;-86
2021/09/01 10:06:41;;;;;;;14.30;8.33;;;25.60;94.50;;;;;;6152619;23;20432;-87
2021/09/01 10:09:09;;;;;;;9.77;7.23;;;26.10;93.60;;;;;;6153002;23;20409;-88
2021/09/01 10:11:38;;;;;;;12.77;7.37;;;26.60;92.30;;;;;;6152210;23;20396;-87
2021/09/01 10:14:27;;;;;;;16.70;9.80;;;26.60;92.00;;;;;;6151098;23;20458;-85
2021/09/01 10:17:02;;;;;;;11.07;7.77;;;26.20;92.80;;;;;;6148062;23;20443;-87
2021/09/01 10:19:31;;;;;;;10.37;6.90;;;25.80;93.00;;;;;;6148732;23;20408;-86
2021/09/01 10:22:02;;;;;;;8.00;5.67;;;25.90;93.10;;;;;;6146864;23;20414;-86
2021/09/01 10:24:32;;;;;;;10.47;5.60;;;26.50;91.90;;;;;;6145958;23;20421;-84
2021/09/01 10:27:03;;;;;;;11.20;6.37;;;26.70;91.30;;;;;;6146926;23;20512;-84
2021/09/01 10:29:47;;;;;;;13.63;6.50;;;26.90;90.60;;;;;;6143870;23;20393;-85
2021/09/01 10:32:24;;;;;;;11.83;5.90;;;26.70;91.30;;;;;;6139862;23;20400;-83
2021/09/01 10:35:01;;;;;;;16.53;6.27;;;27.30;91.00;;;;;;6138462;23;20512;-84
2021/09/01 10:37:43;;;;;;;11.03;5.63;;;27.50;90.60;;;;;;6137983;23;20452;-85
2021/09/01 10:40:12;;;;;;;10.93;6.50;;;27.50;90.10;;;;;;6135965;23;20432;-84
2021/09/01 10:42:43;;;;;;;14.90;6.77;;;26.90;89.60;;;;;;6137649;23;20420;-84
2021/09/01 10:45:15;;;;;;;10.97;6.00;;;26.50;91.00;;;;;;6140760;23;20377;-84
2021/09/01 10:48:08;;;;;;;7.97;4.50;;;26.40;91.20;;;;;;6138793;23;20473;-84
2021/09/01 10:50:37;;;;;;;10.50;6.50;;;26.30;91.40;;;;;;6133103;23;20427;-85
2021/09/01 10:53:09;;;;;;;12.33;5.90;;;26.10;91.90;;;;;;6140929;23;20431;-85
2021/09/01 10:55:49;;;;;;;11.10;6.50;;;25.80;91.40;;;;;;6138610;23;20879;-86
2021/09/01 10:58:23;;;;;;;18.00;8.50;;;25.50;92.40;;;;;;6150463;23;20428;-86
2021/09/01 11:00:57;;;;;;;18.47;7.00;;;25.30;93.00;;;;;;6150908;23;20484;-85
2021/09/01 11:03:42;;;;;;;13.13;6.83;;;25.20;92.90;;;;;;6151147;23;20380;-86
2021/09/01 11:06:32;;;;;;;12.47;6.20;;;24.90;92.80;;;;;;6152152;23;20448;-86
2021/09/01 11:09:08;;;;;;;10.57;5.50;;;24.90;93.20;;;;;;6141939;23;20485;-88
2021/09/01 11:11:50;;;;;;;11.93;6.50;;;25.00;93.10;;;;;;6151917;23;20472;-86
2021/09/01 11:14:37;;;;;;;10.40;6.27;;;24.80;93.20;;;;;;6144766;23;20408;-85
2021/09/01 11:17:16;;;;;;;10.07;5.90;;;24.70;93.60;;;;;;6138110;23;20522;-86
2021/09/01 11:19:45;;;;;;;14.73;5.83;;;24.50;93.10;;;;;;6137666;23;20420;-85
2021/09/01 11:22:14;;;;;;;10.37;6.23;;;24.40;94.90;;;;;;6136941;23;20423;-86
2021/09/01 11:24:46;;;;;;;9.33;5.77;;;24.30;94.00;;;;;;6136880;23;20405;-86
2021/09/01 11:27:15;;;;;;;15.53;6.77;;;24.20;94.40;;;;;;6135528;23;20551;-86
2021/09/01 11:29:43;;;;;;;13.80;6.43;;;24.20;95.40;;;;;;6139446;23;20413;-84
2021/09/01 11:32:17;;;;;;;16.83;5.67;;;24.40;95.60;;;;;;6138086;23;20401;-86
2021/09/01 11:34:44;;;;;;;11.23;6.50;;;24.20;95.10;;;;;;6138360;23;20393;-84
2021/09/01 11:37:11;;;;;;;11.80;7.00;;;24.30;95.30;;;;;;6138574;23;20422;-85
2021/09/01 11:39:43;;;;;;;15.43;6.47;;;24.10;95.30;;;;;;6140940;23;20818;-86
2021/09/01 11:42:11;;;;;;;16.10;7.43;;;24.10;95.80;;;;;;6140575;23;20409;-85
2021/09/01 11:44:38;;;;;;;12.83;5.60;;;23.90;95.90;;;;;;6139928;23;20428;-85
2021/09/01 11:47:10;;;;;;;10.77;5.83;;;23.90;96.30;;;;;;6141068;23;20536;-84
2021/09/01 11:49:38;;;;;;;8.80;5.60;;;23.80;96.00;;;;;;6141829;23;20509;-85
2021/09/01 11:52:06;;;;;;;19.43;6.60;;;23.70;95.70;;;;;;6139009;23;20436;-85
2021/09/01 11:54:36;;;;;;;9.37;5.70;;;23.70;95.90;;;;;;6139336;23;20417;-86
2021/09/01 11:57:03;;;;;;;12.20;6.33;;;23.40;96.20;;;;;;6139463;23;20454;-84
2021/09/01 11:59:30;;;;;;;10.53;6.40;;;23.30;97.30;;;;;;6137819;23;20418;-84
2021/09/01 12:02:05;;;;;;;14.37;6.40;;;23.50;96.70;;;;;;6136741;23;20469;-85
2021/09/01 12:04:41;;;;;;;13.50;5.67;;;23.50;96.30;;;;;;6136561;23;20412;-84
2021/09/01 12:07:10;;;;;;;9.37;6.37;;;23.50;96.80;;;;;;6136105;23;20432;-84
2021/09/01 12:09:39;;;;;;;12.83;6.43;;;23.60;97.00;;;;;;6137384;23;20477;-85
2021/09/01 12:12:07;;;;;;;10.23;6.00;;;23.40;96.90;;;;;;6137838;23;20410;-84
2021/09/01 12:14:35;;;;;;;16.00;7.37;;;23.30;96.50;;;;;;6138986;23;20909;-84
2021/09/01 12:17:16;;;;;;;10.23;5.83;;;23.40;97.30;;;;;;6135537;23;20553;-85
2021/09/01 12:19:50;;;;;;;10.77;5.63;;;23.50;95.50;;;;;;6136358;23;20460;-86
2021/09/01 12:22:33;;;;;;;13.70;6.63;;;23.30;96.10;;;;;;6138261;23;20374;-85
2021/09/01 12:25:03;;;;;;;13.50;5.87;;;23.30;95.80;;;;;;6136995;23;20438;-87
2021/09/01 12:27:30;;;;;;;9.80;5.10;;;23.40;95.80;;;;;;6136239;23;20517;-85
2021/09/01 12:29:58;;;;;;;8.77;5.83;;;23.60;96.60;;;;;;6137407;23;20436;-84
2021/09/01 12:32:28;;;;;;;8.30;5.23;;;23.70;96.00;;;;;;6138004;23;20428;-84
2021/09/01 12:35:00;;;;;;;10.43;5.40;;;23.60;96.30;;;;;;6140189;23;20418;-84
2021/09/01 12:37:28;;;;;;;12.53;6.43;;;23.80;96.30;;;;;;6143856;23;20437;-84
2021/09/01 12:39:59;;;;;;;14.13;6.83;;;24.00;95.80;;;;;;6141919;23;20421;-84
2021/09/01 12:42:31;;;;;;;19.30;7.07;;;24.00;95.90;;;;;;6141962;23;20394;-85
2021/09/01 12:45:01;;;;;;;9.63;5.77;;;24.20;95.40;;;;;;6141462;23;20429;-85
2021/09/01 12:47:29;;;;;;;12.17;6.03;;;24.20;95.10;;;;;;6140050;23;20453;-84
2021/09/01 12:49:58;;;;;;;8.90;5.40;;;24.20;95.10;;;;;;6142068;23;20417;-84
2021/09/01 12:52:26;;;;;;;9.70;5.30;;;24.30;95.10;;;;;;6142461;23;20417;-84
2021/09/01 12:54:55;;;;;;;19.03;6.20;;;24.40;95.50;;;;;;6142739;23;20412;-83
2021/09/01 12:57:24;;;;;;;11.30;6.43;;;24.40;95.30;;;;;;6143307;23;20471;-84
2021/09/01 12:59:51;;;;;;;7.13;4.53;;;24.60;94.70;;;;;;6145476;23;20411;-84
2021/09/01 13:02:19;;;;;;;9.63;5.60;;;24.50;94.80;;;;;;6144943;23;20448;-84
2021/09/01 13:04:46;;;;;;;15.47;5.93;;;24.60;94.60;;;;;;6143832;23;20410;-84
2021/09/01 13:07:13;;;;;;;10.50;6.13;;;24.70;94.60;;;;;;6145296;23;20440;-85
2021/09/01 13:09:40;;;;;;;8.70;5.60;;;24.40;94.30;;;;;;6144510;23;20452;-86
2021/09/01 13:12:08;;;;;;;9.30;5.27;;;24.20;94.60;;;;;;6142045;23;20932;-85
2021/09/01 13:14:40;;;;;;;7.50;5.50;;;24.10;94.70;;;;;;6140904;23;20844;-86
2021/09/01 13:17:10;;;;;;;10.73;5.47;;;24.00;94.40;;;;;;6146087;23;20445;-88
2021/09/01 13:19:37;;;;;;;14.57;5.97;;;24.20;95.00;;;;;;6140124;23;20469;-85
2021/09/01 13:22:05;;;;;;;8.90;5.70;;;24.10;94.60;;;;;;6142962;23;20413;-85
2021/09/01 13:24:33;;;;;;;10.83;5.20;;;24.30;94.90;;;;;;6139204;23;20756;-85
2021/09/01 13:27:00;;;;;;;10.07;6.33;;;24.50;94.90;;;;;;6141034;23;20493;-85
2021/09/01 13:29:28;;;;;;;9.07;5.90;;;24.60;94.20;;;;;;6143604;23;20445;-85
2021/09/01 13:31:57;;;;;;;8.90;5.37;;;24.60;93.90;;;;;;6137568;23;20416;-85
2021/09/01 13:34:24;;;;;;;8.23;5.50;;;24.40;94.20;;;;;;6135193;23;20404;-85
2021/09/01 13:36:51;;;;;;;10.03;5.80;;;24.40;94.50;;;;;;6135110;23;20468;-85
2021/09/01 13:39:18;;;;;;;12.10;6.00;;;24.40;94.00;;;;;;6133607;23;20428;-85
2021/09/01 13:41:46;;;;;;;6.23;4.90;;;24.40;94.30;;;;;;6136275;23;20472;-84
2021/09/01 13:44:14;;;;;;;9.33;5.80;;;24.60;94.10;;;;;;6135897;23;20427;-84
2021/09/01 13:46:41;;;;;;;11.03;5.20;;;24.80;94.20;;;;;;6139024;23;20501;-85
2021/09/01 13:49:10;;;;;;;17.43;5.30;;;24.90;93.70;;;;;;6146211;23;20427;-86
2021/09/01 13:51:38;;;;;;;8.50;5.03;;;25.10;93.50;;;;;;6149826;23;20457;-85
2021/09/01 13:54:05;;;;;;;6.90;4.90;;;25.30;93.40;;;;;;6151202;23;20423;-87
2021/09/01 13:56:32;;;;;;;8.43;4.50;;;25.40;92.80;;;;;;6151253;23;20429;-89
2021/09/01 13:59:00;;;;;;;7.33;5.07;;;25.30;92.60;;;;;;6152033;23;20408;-86
2021/09/01 14:01:28;;;;;;;13.53;5.30;;;25.30;92.70;;;;;;6152138;23;20451;-86
2021/09/01 14:03:55;;;;;;;9.10;5.90;;;25.30;93.50;;;;;;6152560;23;20412;-88
2021/09/01 14:06:24;;;;;;;13.83;6.20;;;25.20;93.50;;;;;;6150785;23;20400;-86
2021/09/01 14:08:51;;;;;;;8.33;5.77;;;25.10;93.10;;;;;;6145522;23;20500;-84
2021/09/01 14:11:18;;;;;;;9.13;6.27;;;25.00;93.50;;;;;;6140634;23;20524;-84
2021/09/01 14:13:46;;;;;;;7.80;5.00;;;25.00;93.10;;;;;;6139080;23;20418;-84
2021/09/01 14:16:15;;;;;;;10.03;5.80;;;25.00;93.30;;;;;;6136991;23;20425;-85
2021/09/01 14:18:43;;;;;;;9.30;6.17;;;24.90;93.40;;;;;;6136149;23;20402;-84
2021/09/01 14:21:10;;;;;;;13.50;5.70;;;24.80;93.40;;;;;;6135588;23;20458;-84
2021/09/01 14:23:39;;;;;;;10.10;6.10;;;24.70;93.70;;;;;;6134696;23;20414;-85
2021/09/01 14:26:06;;;;;;;8.17;4.77;;;24.80;93.70;;;;;;6135164;23;20414;-86
2021/09/01 14:28:35;;;;;;;15.37;6.37;;;24.80;93.50;;;;;;6135557;23;20467;-85
2021/09/01 14:31:02;;;;;;;8.13;5.07;;;24.80;93.00;;;;;;6136106;23;20413;-85
2021/09/01 14:33:30;;;;;;;8.33;5.83;;;24.70;93.40;;;;;;6134116;23;20413;-85
2021/09/01 14:35:58;;;;;;;9.13;4.70;;;24.80;93.50;;;;;;6133262;23;20492;-85
2021/09/01 14:38:25;;;;;;;8.30;4.70;;;24.70;93.30;;;;;;6134941;23;20425;-86
2021/09/01 14:40:54;;;;;;;12.53;5.60;;;24.70;92.90;;;;;;6135371;23;20440;-85
2021/09/01 14:43:22;;;;;;;8.07;4.20;;;24.90;93.40;;;;;;6135159;23;20401;-86
2021/09/01 14:45:49;;;;;;;10.00;5.27;;;24.90;93.50;;;;;;6134729;23;20417;-84
2021/09/01 14:48:16;;;;;;;14.87;5.80;;;24.90;93.20;;;;;;6135070;23;21016;-85
2021/09/01 14:50:44;;;;;;;12.70;6.40;;;24.90;93.50;;;;;;6134475;23;20397;-86
2021/09/01 14:53:11;;;;;;;9.00;5.00;;;25.00;93.50;;;;;;6134671;23;20421;-84
2021/09/01 14:55:39;;;;;;;12.53;5.87;;;25.00;93.30;;;;;;6137246;23;20409;-85
2021/09/01 14:58:08;;;;;;;8.57;4.80;;;25.10;93.30;;;;;;6139186;23;20441;-84
2021/09/01 15:00:36;;;;;;;8.73;4.67;;;25.30;93.20;;;;;;6141751;23;20386;-85
2021/09/01 15:03:03;;;;;;;10.20;5.63;;;25.30;92.80;;;;;;6147437;23;20419;-86
2021/09/01 15:05:32;;;;;;;8.80;5.27;;;25.30;93.10;;;;;;6147890;23;20393;-84
2021/09/01 15:07:59;;;;;;;5.57;4.07;;;25.30;93.10;;;;;;6148050;23;20472;-84
2021/09/01 15:10:26;;;;;;;9.23;4.97;;;25.20;92.80;;;;;;6144253;23;20492;-85
2021/09/01 15:12:54;;;;;;;7.13;5.80;;;25.20;92.80;;;;;;6142716;23;20457;-85
2021/09/01 15:15:22;;;;;;;13.03;5.90;;;25.20;92.70;;;;;;6140251;23;20399;-85
2021/09/01 15:17:51;;;;;;;12.00;6.83;;;25.20;92.60;;;;;;6141015;23;20436;-83
2021/09/01 15:20:19;;;;;;;10.40;5.40;;;25.10;92.90;;;;;;6139140;23;20421;-84
2021/09/01 15:22:47;;;;;;;11.73;5.67;;;25.10;92.50;;;;;;6135911;23;20409;-84
2021/09/01 15:25:16;;;;;;;21.50;12.67;;;24.90;92.70;;;;;;6136325;23;20472;-84
2021/09/01 15:27:44;;;;;;;14.27;6.87;;;25.00;93.50;;;;;;6137825;23;20433;-85
2021/09/01 15:30:13;;;;;;;12.57;7.10;;;25.10;93.40;;;;;;6135354;23;20444;-85
2021/09/01 15:32:42;;;;;;;10.00;5.50;;;25.10;93.00;;;;;;6133476;23;20394;-84
2021/09/01 15:35:10;;;;;;;9.50;6.10;;;25.00;92.90;;;;;;6133808;23;20425;-84
2021/09/01 15:37:37;;;;;;;10.03;6.70;;;24.90;93.10;;;;;;6134870;23;20931;-84
2021/09/01 15:40:06;;;;;;;8.70;5.27;;;24.80;93.20;;;;;;6136655;23;20973;-85
2021/09/01 15:42:37;;;;;;;9.67;5.00;;;24.70;93.30;;;;;;6133105;23;20429;-85
2021/09/01 15:45:06;;;;;;;9.73;5.27;;;24.70;93.60;;;;;;6133500;23;20456;-84
2021/09/01 15:47:36;;;;;;;8.10;5.23;;;24.70;93.30;;;;;;6133844;23;20929;-85
2021/09/01 15:50:06;;;;;;;14.17;5.80;;;24.80;93.60;;;;;;6135476;23;20451;-85
2021/09/01 15:52:34;;;;;;;10.67;6.03;;;24.70;93.40;;;;;;6143197;23;20443;-85
2021/09/01 15:55:03;;;;;;;6.73;4.83;;;24.70;93.60;;;;;;6148343;23;20416;-85
2021/09/01 15:57:39;;;;;;;7.90;5.80;;;24.70;93.60;;;;;;6149221;23;20453;-85
2021/09/01 16:00:08;;;;;;;9.13;5.60;;;24.80;93.70;;;;;;6148349;23;20422;-84
2021/09/01 16:02:38;;;;;;;10.53;4.70;;;24.80;93.60;;;;;;6148909;23;20420;-85
2021/09/01 16:05:08;;;;;;;7.10;5.30;;;24.90;93.60;;;;;;6148052;23;20401;-88
2021/09/01 16:07:35;;;;;;;10.43;4.93;;;24.70;93.50;;;;;;6145518;23;20954;-86
2021/09/01 16:10:04;;;;;;;7.40;4.53;;;24.60;93.60;;;;;;6140252;23;20455;-85
2021/09/01 16:12:34;;;;;;;8.77;5.20;;;24.50;93.40;;;;;;6141281;23;20415;-85
2021/09/01 16:15:05;;;;;;;6.80;4.67;;;24.40;93.50;;;;;;6138410;23;20433;-87
2021/09/01 16:17:45;;;;;;;11.93;5.13;;;24.30;94.10;;;;;;6139789;23;20413;-86
2021/09/01 16:20:19;;;;;;;10.97;6.07;;;24.30;94.30;;;;;;6148471;23;20424;-85
2021/09/01 16:22:52;;;;;;;8.20;5.23;;;24.30;93.60;;;;;;6152611;23;20405;-86
2021/09/01 16:25:21;;;;;;;8.23;5.63;;;24.20;93.90;;;;;;6152587;23;20477;-88